MAPA DE AEROPUERTO

INFORMACIÓN METAR y TAF

METAR FOR ESGG
ADDS - METARS form results

(0509 UTC 10 May 2021)
Data provider http://aviationweather.gov/metar/data/
 
METAR text: ESGG 100450Z 13011KT CAVOK 13/10 Q1002
Conditions at: ESGG (GOTEBORG/LANDVET, SE) observed 0450 UTC 10 May 2021
Temperature: 13.0°C (55°F)
Dewpoint: 10.0°C (50°F) [RH = 82%]
Pressure (altimeter): 29.59 inches Hg (1002.0 mb)
Winds: from the SE (130 degrees) at 13 MPH (11 knots; 5.7 m/s)
Visibility: 6 or more miles (10+ km)
Ceiling: ceiling and visibility are OK
Clouds: unknown
Weather: no significant weather observed at this time

METAR text: ESGG 100420Z 13011KT 9999 FEW049 12/11 Q1002
Conditions at: ESGG (GOTEBORG/LANDVET, SE) observed 0420 UTC 10 May 2021
Temperature: 12.0°C (54°F)
Dewpoint: 11.0°C (52°F) [RH = 94%]
Pressure (altimeter): 29.59 inches Hg (1002.0 mb)
Winds: from the SE (130 degrees) at 13 MPH (11 knots; 5.7 m/s)
Visibility: 6 or more miles (10+ km)
Ceiling: at least 12,000 feet AGL
Clouds: few clouds at 4900 feet AGL
Weather: no significant weather observed at this time

Forecast for: ESGG (GOTEBORG/LANDVET, SE)
Text: TAF ESGG 092330Z 1000/1024 17006KT 8000 SCT015 BKN030
Forecast period: 0000 UTC 10 May 2021 to 0000 UTC 11 May 2021
Forecast type: FROM: standard forecast or significant change
Winds: from the S (170 degrees) at 7 MPH (6 knots; 3.1 m/s)
Visibility: 5 miles (8 km)
Ceiling: 3000 feet AGL
Clouds: scattered clouds at 1500 feet AGL
broken clouds at 3000 feet AGL
Weather: no significant weather forecast for this period
Text: TEMPO 1000/1002 2500 TSRA BKN006 BKN020CB
Forecast period: 0000 to 0200 UTC 10 May 2021
Forecast type: TEMPORARY: The following changes expected for less than half the time period
Visibility: 1.55 miles (2.49 km)
Ceiling: 600 feet AGL
Clouds: broken clouds at 600 feet AGL
broken clouds at 2000 feet AGL
Weather: TSRA  (rain associated with thunderstorm(s))
Text: PROB40 1002/1006 2500 BR
Forecast period: 0200 to 0600 UTC 10 May 2021
Forecast type: PROBABLE: 40 percent likelihood of the following during this time
Visibility: 1.55 miles (2.49 km)
Ceiling: unknown
Clouds: missing
Weather: BR  (mist)